• Join FlightAware (Why Join?)
  • Login
  • US Flag 
12:32PM EDT


 

Airport Tracker/Info


-or-


 

Live Flight TrackerFlight Track Log ✈ UAL4695 ✈ 23-Apr-2013 ✈ KEWR - KMHT

Flight Track Log - Related Links

Times and Time Zones

All times are in EDT time to prevent confusion due to time zone crossing. See the UAL4695 flight status page for this flight to view local times or setup timezone preferences in your user account.

Time Position Orientation Groundspeed Altitude Reporting Facility
EDT Latitude Longitude Course Direction KTS MPH feet Rate Location/Type
11:24PM 40.7500 -74.1167 27° Northeast 210 242 3,800  Level New York TRACON
11:25PM 40.8899 -73.9384 21° North  Level FlightAware Approximate
11:25PM 40.8167 -74.0667 30° Northeast 249 287 6,000  Level New York TRACON
11:26PM 40.9554 -73.8612 37° Northeast  Level FlightAware Approximate
11:26PM 40.8667 -74.0000 45° Northeast 257 296 9,300  Level New York TRACON
11:27PM 41.0283 -73.7849 40° Northeast  Level FlightAware Approximate
11:27PM 40.9167 -73.9500 37° Northeast 277 319 11,600  Level New York TRACON
11:28PM 41.0991 -73.7052 40° Northeast  Level FlightAware Approximate
11:28PM 41.0142 -73.8458 39° Northeast 322 371 13,900  Level Boston Center
11:29PM 41.1719 -73.6410 27° Northeast  Level FlightAware Approximate
11:29PM 41.1028 -73.7539 38° Northeast 352 405 15,000  Level Boston Center
11:30PM 41.2017 -73.6706 32° Northeast 375 432 16,200 960 Climbing Boston Center
11:31PM 41.2858 -73.5975 33° Northeast 391 450 17,000 360 Climbing Boston Center
11:32PM 41.3886 -73.5108 32° Northeast 397 457 17,000  Level Boston Center
11:33PM 41.4728 -73.4375 33° Northeast 397 457 17,000  Level Boston Center
11:34PM 41.5756 -73.3531 32° Northeast 397 457 17,000  Level Boston Center
11:35PM 41.6719 -73.2739 32° Northeast 397 457 17,000  Level Boston Center
11:36PM 41.7664 -73.1917 33° Northeast 397 457 17,000  Level Boston Center
11:37PM 41.8586 -73.1119 33° Northeast 392 451 17,000  Level Boston Center
11:38PM 41.9508 -73.0347 32° Northeast 392 451 17,000  Level Boston Center
11:39PM 42.0428 -72.9544 33° Northeast 392 451 17,000  Level Boston Center
11:40PM 42.1267 -72.8794 34° Northeast 397 457 17,000  Level Boston Center
11:41PM 42.2311 -72.7878 33° Northeast 397 457 17,000  Level Boston Center
11:42PM 42.3147 -72.7153 33° Northeast 398 458 17,000  Level Boston Center
11:43PM 42.3981 -72.6425 33° Northeast 393 452 17,000  Level Boston Center
11:44PM 42.4961 -72.5556 33° Northeast 393 452 17,000  Level Boston Center
11:45PM 42.5775 -72.4881 31° Northeast 370 426 17,000 -240 Level Boston Center
11:46PM 42.6589 -72.4147 34° Northeast 351 404 16,600 -1,200 Descending Boston Center
11:47PM 42.7339 -72.3467 34° Northeast 337 388 14,700 -2,160 Descending Boston Center
11:48PM 42.7942 -72.2450 51° Northeast 309 356 12,400 -2,040 Descending Boston Center
11:49PM 42.7897 -72.1372 93° East 288 331 10,700 -1,500 Descending Boston Center
11:50PM 42.7811 -72.0186 96° East 293 337 9,500 -1,080 Descending Boston Center
11:51PM 42.7722 -71.9253 97° East 281 323 8,600 -1,200 Descending Boston Center
11:52PM 42.7633 -71.8150 96° East 267 307 7,100 -1,560 Descending Boston Center
11:53PM 42.7567 -71.7275 96° East 261 300 5,500 -1,500 Descending Boston Center
11:54PM 42.7497 -71.6344 96° East 231 266 4,200 -960 Descending Boston Center
11:55PM 42.7408 -71.5694 101° East 204 235 3,600 -600 Descending Boston Center
11:56PM 42.7342 -71.4875 96° East 198 228 3,100 -300 Descending Boston Center
11:57PM 42.7250 -71.4225 101° East 198 228 3,100  Level Boston Center
11:58PM 42.7369 -71.3517 77° East 185 213 3,100 -60 Level Boston Center
11:59PM 42.7828 -71.3567 355° North 139 160 3,000 -540 Descending Boston Center
12:00AM 42.8394 -71.3811 342° North 186 214 2,100 -900 Descending Boston Center
12:01AM 42.8772 -71.4031 337° Northwest 178 205 1,300 -840 Descending Boston Center